Time;durP1;ratioP1;P1;durP2;ratioP2;P2;SDS_P1;SDS_P2;PMS_P1;PMS_P2;Temp;Humidity;BMP_temperature;BMP_pressure;BME280_temperature;BME280_humidity;BME280_pressure;Samples;Min_cycle;Max_cycle;Signal;HPM_P1;HPM_P2
2021/09/03 00:01:08;;;;;;;2.10;1.45;;;;;;;10.50;81.37;99800.11;1658159;85;21081;-71
2021/09/03 00:03:34;;;;;;;1.98;1.27;;;;;;;10.48;81.54;99805.47;1683802;83;21022;-72
2021/09/03 00:06:01;;;;;;;1.50;1.40;;;;;;;10.45;81.63;99801.94;1660465;85;21339;-72
2021/09/03 00:08:29;;;;;;;2.50;1.12;;;;;;;10.43;81.78;99810.77;1682699;83;20916;-74
2021/09/03 00:10:55;;;;;;;2.00;1.40;;;;;;;10.40;81.90;99809.92;1710681;83;21113;-74
2021/09/03 00:13:25;;;;;;;3.40;1.47;;;;;;;10.38;82.03;99812.03;1710675;83;20999;-73
2021/09/03 00:15:54;;;;;;;3.20;1.30;;;;;;;10.35;82.15;99813.35;1709778;83;21526;-74
2021/09/03 00:18:22;;;;;;;3.08;1.32;;;;;;;10.34;82.33;99810.37;1637110;86;22021;-74
2021/09/03 00:20:48;;;;;;;3.87;1.62;;;;;;;10.34;82.38;99806.87;1654773;86;21015;-72
2021/09/03 00:23:16;;;;;;;1.82;1.07;;;;;;;10.33;82.37;99803.36;1653014;85;21070;-73
2021/09/03 00:25:43;;;;;;;2.25;1.52;;;;;;;10.32;82.35;99807.62;1683843;85;21101;-74
2021/09/03 00:28:09;;;;;;;1.82;1.30;;;;;;;10.30;82.38;99811.11;1683608;85;21063;-68
2021/09/03 00:30:35;;;;;;;2.20;1.42;;;;;;;10.28;82.49;99807.84;1660110;85;21562;-72
2021/09/03 00:33:04;;;;;;;1.40;1.30;;;;;;;10.27;82.62;99803.52;1645435;86;21578;-70
2021/09/03 00:35:30;;;;;;;2.77;1.42;;;;;;;10.29;82.53;99808.95;1649905;85;21500;-72
2021/09/03 00:37:57;;;;;;;1.22;1.10;;;;;;;10.30;82.45;99809.77;1632976;86;21229;-71
2021/09/03 00:40:24;;;;;;;1.55;1.37;;;;;;;10.28;82.53;99796.56;1649008;86;21015;-71
2021/09/03 00:42:50;;;;;;;3.42;1.32;;;;;;;10.26;82.64;99806.77;1666173;85;21008;-73
2021/09/03 00:45:16;;;;;;;7.83;1.37;;;;;;;10.24;82.78;99808.05;1676217;85;21102;-73
2021/09/03 00:47:43;;;;;;;3.37;1.92;;;;;;;10.22;82.79;99804.25;1676494;85;21115;-72
2021/09/03 00:50:11;;;;;;;1.20;1.10;;;;;;;10.18;82.93;99803.11;1635711;86;21167;-69
2021/09/03 00:52:38;;;;;;;1.17;1.00;;;;;;;10.15;83.00;99800.89;1678940;85;21026;-71
2021/09/03 00:55:06;;;;;;;1.50;1.40;;;;;;;10.13;83.28;99804.34;1656577;85;21102;-72
2021/09/03 00:57:34;;;;;;;1.47;1.37;;;;;;;10.16;83.49;99803.09;1605596;87;21091;-72
2021/09/03 01:00:00;;;;;;;1.52;1.22;;;;;;;10.17;83.22;99808.76;1648921;86;21515;-71
2021/09/03 01:02:27;;;;;;;2.05;1.10;;;;;;;10.16;83.12;99806.59;1627803;87;21244;-74
2021/09/03 01:04:53;;;;;;;2.95;1.50;;;;;;;10.14;83.09;99810.02;1676478;85;21011;-74
2021/09/03 01:07:20;;;;;;;3.62;1.17;;;;;;;10.11;83.14;99807.82;1656986;85;20983;-75
2021/09/03 01:09:47;;;;;;;3.92;1.25;;;;;;;10.08;83.19;99815.83;1629899;87;21552;-73
2021/09/03 01:12:15;;;;;;;2.00;1.25;;;;;;;10.04;83.34;99807.97;1692880;84;21070;-74
2021/09/03 01:14:44;;;;;;;5.20;1.80;;;;;;;10.03;83.45;99807.67;1687023;84;20986;-72
2021/09/03 01:17:11;;;;;;;2.75;1.55;;;;;;;10.01;83.59;99813.84;1694582;84;21047;-74
2021/09/03 01:19:37;;;;;;;1.90;1.55;;;;;;;10.00;83.71;99810.86;1656404;85;21030;-74
2021/09/03 01:22:04;;;;;;;1.80;0.90;;;;;;;9.99;83.75;99806.54;1675043;85;21515;-75
2021/09/03 01:24:31;;;;;;;1.95;1.70;;;;;;;9.96;83.85;99808.91;1660412;85;21016;-72
2021/09/03 01:26:57;;;;;;;2.05;1.85;;;;;;;9.91;83.98;99806.95;1676753;85;21015;-73
2021/09/03 01:29:24;;;;;;;1.37;1.15;;;;;;;9.88;84.23;99806.06;1670116;84;21064;-72
2021/09/03 01:31:51;;;;;;;1.07;1.07;;;;;;;9.86;84.43;99812.23;1670076;86;20944;-70
2021/09/03 01:34:17;;;;;;;1.60;1.35;;;;;;;9.85;84.74;99809.25;1663855;85;21101;-73
2021/09/03 01:36:44;;;;;;;2.83;1.50;;;;;;;9.85;84.83;99813.80;1647568;87;21079;-73
2021/09/03 01:39:10;;;;;;;1.42;1.32;;;;;;;9.83;84.92;99809.22;1676994;85;21838;-73
2021/09/03 01:41:37;;;;;;;2.42;1.70;;;;;;;9.81;85.04;99809.45;1644989;86;20952;-72
2021/09/03 01:44:04;;;;;;;2.87;1.50;;;;;;;9.81;85.19;99808.11;1681338;85;21468;-69
2021/09/03 01:46:30;;;;;;;2.22;1.22;;;;;;;9.82;85.22;99796.84;1642507;86;21020;-69
2021/09/03 01:48:57;;;;;;;2.40;1.40;;;;;;;9.84;85.24;99800.08;1654393;86;20962;-70
2021/09/03 01:51:24;;;;;;;1.82;1.30;;;;;;;9.84;85.14;99796.05;1654004;86;21907;-70
2021/09/03 01:53:52;;;;;;;1.55;1.35;;;;;;;9.81;85.11;99796.02;1681879;85;20903;-69
2021/09/03 01:56:18;;;;;;;1.50;1.10;;;;;;;9.81;85.13;99805.95;1653716;86;21017;-67
2021/09/03 01:58:46;;;;;;;6.70;1.72;;;;;;;9.79;85.07;99802.15;1633088;86;21114;-68
2021/09/03 02:01:12;;;;;;;1.55;1.35;;;;;;;9.79;84.97;99798.64;1627360;88;21066;-68
2021/09/03 02:03:39;;;;;;;1.52;1.42;;;;;;;9.80;84.82;99798.94;1626127;88;21164;-67
2021/09/03 02:06:05;;;;;;;1.87;1.47;;;;;;;9.81;84.70;99795.20;1651950;86;20971;-69
2021/09/03 02:08:33;;;;;;;1.40;1.30;;;;;;;9.80;84.53;99787.67;1649017;86;21631;-69
2021/09/03 02:10:59;;;;;;;2.08;1.50;;;;;;;9.81;84.41;99789.83;1649258;87;21012;-68
2021/09/03 02:13:26;;;;;;;1.87;1.77;;;;;;;9.78;84.39;99787.12;1630068;86;21034;-69
2021/09/03 02:15:53;;;;;;;1.65;1.55;;;;;;;9.78;84.39;99784.95;1645622;86;21176;-69
2021/09/03 02:18:19;;;;;;;1.50;1.40;;;;;;;9.81;84.38;99795.20;1681809;85;21090;-66
2021/09/03 02:20:47;;;;;;;3.77;1.50;;;;;;;9.81;84.15;99797.36;1682124;85;20966;-67
2021/09/03 02:23:14;;;;;;;1.87;1.70;;;;;;;9.79;83.98;99792.75;1659829;85;21093;-67
2021/09/03 02:25:40;;;;;;;2.42;1.42;;;;;;;9.78;83.87;99795.17;1652865;86;21095;-66
2021/09/03 02:28:08;;;;;;;2.60;1.32;;;;;;;9.74;83.85;99794.00;1677709;85;21516;-68
2021/09/03 02:30:35;;;;;;;1.62;1.30;;;;;;;9.72;83.89;99802.84;1681877;85;21061;-68
2021/09/03 02:33:02;;;;;;;1.60;1.50;;;;;;;9.70;83.91;99800.91;1628710;87;21025;-67
2021/09/03 02:35:30;;;;;;;5.85;3.35;;;;;;;9.70;83.89;99802.78;1647401;86;21084;-68
2021/09/03 02:37:57;;;;;;;1.20;1.10;;;;;;;9.71;83.89;99801.21;1673595;85;21044;-67
2021/09/03 02:40:26;;;;;;;2.47;1.40;;;;;;;9.69;83.90;99798.49;1659941;85;21142;-67
2021/09/03 02:42:54;;;;;;;2.72;1.77;;;;;;;9.68;83.89;99799.55;1656327;86;21016;-69
2021/09/03 02:45:21;;;;;;;3.37;1.55;;;;;;;9.68;83.97;99799.55;1708483;83;21504;-68
2021/09/03 02:47:48;;;;;;;1.60;1.47;;;;;;;9.70;84.00;99802.78;1708638;83;21063;-68
2021/09/03 02:50:14;;;;;;;6.22;1.95;;;;;;;9.73;83.96;99795.61;1710465;83;21523;-69
2021/09/03 02:52:41;;;;;;;4.33;1.57;;;;;;;9.75;83.81;99789.45;1710708;83;21095;-68
2021/09/03 02:55:09;;;;;;;3.22;1.47;;;;;;;9.76;83.58;99795.93;1708663;83;20990;-67
2021/09/03 02:57:35;;;;;;;3.20;1.92;;;;;;;9.74;83.21;99796.69;1700511;84;21062;-67
2021/09/03 03:00:04;;;;;;;1.70;1.60;;;;;;;9.70;82.76;99803.60;1702437;83;21074;-67
2021/09/03 03:02:30;;;;;;;2.60;1.55;;;;;;;9.64;82.54;99798.66;1711218;83;21071;-69
2021/09/03 03:04:56;;;;;;;5.80;1.50;;;;;;;9.58;82.48;99799.64;1710876;83;21253;-68
2021/09/03 03:07:23;;;;;;;8.40;2.87;;;;;;;9.55;82.41;99796.61;1708336;83;20994;-68
2021/09/03 03:09:51;;;;;;;1.45;1.35;;;;;;;9.54;82.44;99801.16;1710795;83;21050;-68
2021/09/03 03:12:20;;;;;;;1.55;1.40;;;;;;;9.51;82.19;99805.67;1688188;83;21026;-68
2021/09/03 03:14:47;;;;;;;1.37;1.20;;;;;;;9.45;81.95;99803.94;1708705;83;21114;-68
2021/09/03 03:17:14;;;;;;;6.62;1.50;;;;;;;9.40;81.91;99811.11;1705920;83;21152;-72
2021/09/03 03:19:42;;;;;;;3.45;1.70;;;;;;;9.35;81.84;99813.69;1704169;84;20930;-68
2021/09/03 03:22:09;;;;;;;2.42;1.45;;;;;;;9.31;81.81;99813.85;1669852;84;21044;-68
2021/09/03 03:24:37;;;;;;;2.83;2.42;;;;;;;9.27;81.79;99811.36;1707326;82;21535;-67
2021/09/03 03:27:04;;;;;;;2.15;1.47;;;;;;;9.20;81.79;99812.86;1678569;83;21118;-67
2021/09/03 03:29:31;;;;;;;1.80;1.70;;;;;;;9.16;81.86;99813.84;1655805;86;22319;-68
2021/09/03 03:31:58;;;;;;;3.12;1.70;;;;;;;9.12;81.88;99815.89;1627668;88;21062;-68
2021/09/03 03:34:24;;;;;;;1.55;1.45;;;;;;;9.10;81.91;99816.67;1651998;86;21540;-68
2021/09/03 03:36:52;;;;;;;2.05;1.67;;;;;;;9.07;81.94;99813.10;1643065;86;20987;-68
2021/09/03 03:39:19;;;;;;;4.58;2.25;;;;;;;9.06;81.96;99812.84;1680109;85;21115;-68
2021/09/03 03:41:45;;;;;;;1.77;1.40;;;;;;;9.06;81.94;99812.84;1676561;85;21061;-68
2021/09/03 03:44:13;;;;;;;1.52;1.30;;;;;;;9.05;81.94;99807.17;1676407;85;20940;-67
2021/09/03 03:46:40;;;;;;;1.75;1.55;;;;;;;9.04;81.92;99806.88;1676566;85;21071;-68
2021/09/03 03:49:06;;;;;;;4.35;1.92;;;;;;;9.00;82.00;99803.87;1676418;84;21034;-69
2021/09/03 03:51:32;;;;;;;2.95;1.52;;;;;;;8.99;82.12;99805.44;1676570;85;21066;-68
2021/09/03 03:54:02;;;;;;;1.47;1.37;;;;;;;9.00;82.22;99801.70;1676244;85;22141;-68
2021/09/03 03:56:29;;;;;;;1.80;1.67;;;;;;;9.02;82.17;99811.13;1676369;85;21011;-69
2021/09/03 03:58:55;;;;;;;2.22;1.70;;;;;;;9.02;82.07;99797.72;1676216;85;20999;-68
2021/09/03 04:01:22;;;;;;;2.83;1.65;;;;;;;9.03;81.94;99804.72;1670290;84;20999;-68
2021/09/03 04:03:49;;;;;;;3.37;1.72;;;;;;;9.03;82.01;99806.59;1652253;86;21095;-68
2021/09/03 04:06:15;;;;;;;1.92;1.42;;;;;;;9.01;82.09;99812.20;1670152;86;21128;-68
2021/09/03 04:08:42;;;;;;;7.00;4.00;;;;;;;9.00;82.19;99813.26;1675220;85;21313;-67
2021/09/03 04:11:10;;;;;;;3.27;2.37;;;;;;;9.03;82.17;99810.61;1647691;86;20982;-67
2021/09/03 04:13:38;;;;;;;2.72;2.10;;;;;;;9.05;82.15;99811.20;1676641;85;21509;-68
2021/09/03 04:16:06;;;;;;;2.50;1.82;;;;;;;9.08;82.14;99810.72;1645996;87;21071;-69
2021/09/03 04:18:34;;;;;;;1.67;1.30;;;;;;;9.07;82.12;99812.58;1676551;85;22290;-68
2021/09/03 04:21:02;;;;;;;3.15;1.37;;;;;;;9.08;82.03;99816.91;1675927;84;21011;-68
2021/09/03 04:23:30;;;;;;;4.28;3.15;;;;;;;9.10;82.06;99817.49;1676258;85;21019;-69
2021/09/03 04:25:58;;;;;;;3.47;1.30;;;;;;;9.13;82.12;99829.61;1663812;85;21557;-68
2021/09/03 04:28:24;;;;;;;4.20;1.90;;;;;;;9.15;82.05;99828.33;1644909;87;21047;-67
2021/09/03 04:30:51;;;;;;;3.15;1.57;;;;;;;9.17;81.98;99831.58;1647411;87;22333;-68
2021/09/03 04:33:18;;;;;;;5.20;3.30;;;;;;;9.21;81.99;99824.41;1644764;87;21022;-67
2021/09/03 04:35:44;;;;;;;4.78;1.77;;;;;;;9.22;81.96;99824.67;1647982;85;21032;-69
2021/09/03 04:38:11;;;;;;;3.83;1.80;;;;;;;9.24;81.91;99826.61;1638962;86;21092;-68
2021/09/03 04:40:38;;;;;;;3.17;1.70;;;;;;;9.26;81.95;99821.28;1625732;88;21095;-68
2021/09/03 04:43:04;;;;;;;3.95;2.17;;;;;;;9.31;81.87;99824.06;1677359;85;21426;-67
2021/09/03 04:45:31;;;;;;;2.10;1.90;;;;;;;9.35;81.86;99829.24;1677954;85;21104;-68
2021/09/03 04:47:57;;;;;;;4.33;2.15;;;;;;;9.40;81.64;99827.22;1677707;85;21007;-69
2021/09/03 04:50:25;;;;;;;1.62;1.52;;;;;;;9.41;81.54;99824.27;1657693;85;21087;-68
2021/09/03 04:52:53;;;;;;;2.55;2.08;;;;;;;9.45;81.52;99823.26;1678008;85;21574;-68
2021/09/03 04:55:19;;;;;;;2.10;1.90;;;;;;;9.48;81.49;99821.45;1677562;85;21173;-67
2021/09/03 04:57:45;;;;;;;3.00;1.82;;;;;;;9.56;81.37;99821.88;1677826;85;20977;-67
2021/09/03 05:00:16;;;;;;;2.12;1.87;;;;;;;9.62;81.20;99823.62;1673797;85;21534;-68
2021/09/03 05:02:43;;;;;;;3.17;2.42;;;;;;;9.68;81.09;99833.11;1677764;85;21010;-67
2021/09/03 05:05:11;;;;;;;2.85;1.95;;;;;;;9.71;80.98;99825.91;1677826;85;21031;-68
2021/09/03 05:07:37;;;;;;;2.47;2.10;;;;;;;9.74;80.86;99828.10;1677617;85;21342;-73
2021/09/03 05:10:06;;;;;;;3.85;2.10;;;;;;;9.77;80.78;99828.98;1677649;85;21034;-68
2021/09/03 05:12:34;;;;;;;3.95;1.80;;;;;;;9.82;80.70;99835.27;1677652;85;21075;-67
2021/09/03 05:15:09;;;;;;;2.95;2.05;;;;;;;9.89;80.63;99829.72;1677605;84;21561;-68
2021/09/03 05:17:39;;;;;;;6.72;1.82;;;;;;;9.98;80.45;99828.27;1677744;85;21535;-68
2021/09/03 05:20:06;;;;;;;1.82;1.72;;;;;;;10.06;80.25;99823.86;1677712;85;21077;-68
2021/09/03 05:22:34;;;;;;;2.12;1.92;;;;;;;10.12;79.83;99838.20;1677652;85;21124;-68
2021/09/03 05:25:01;;;;;;;2.17;1.70;;;;;;;10.14;79.56;99832.03;1677634;85;21015;-69
2021/09/03 05:27:28;;;;;;;3.35;1.50;;;;;;;10.16;79.28;99833.99;1677608;85;21012;-70
2021/09/03 05:29:54;;;;;;;8.53;2.00;;;;;;;10.19;78.86;99826.78;1678006;85;21542;-68
2021/09/03 05:32:20;;;;;;;5.92;1.80;;;;;;;10.24;78.52;99832.24;1677735;85;21028;-67
2021/09/03 05:34:47;;;;;;;2.77;1.70;;;;;;;10.29;78.26;99830.45;1657762;85;21067;-67
2021/09/03 05:37:13;;;;;;;5.50;1.50;;;;;;;10.35;78.01;99827.32;1677593;85;21553;-68
2021/09/03 05:39:41;;;;;;;4.58;1.90;;;;;;;10.42;77.92;99825.27;1681475;83;21507;-69
2021/09/03 05:42:11;;;;;;;2.25;1.90;;;;;;;10.48;77.64;99825.11;1683221;84;21088;-69
2021/09/03 05:44:38;;;;;;;1.37;1.27;;;;;;;10.56;77.44;99833.28;1674562;83;21317;-68
2021/09/03 05:47:04;;;;;;;2.17;1.40;;;;;;;10.62;76.93;99826.92;1681867;83;20974;-68
2021/09/03 05:49:32;;;;;;;7.22;1.47;;;;;;;10.67;76.45;99827.53;1710757;83;21076;-68
2021/09/03 05:51:58;;;;;;;2.30;1.42;;;;;;;10.73;76.19;99817.13;1710553;83;21062;-68
2021/09/03 05:54:26;;;;;;;2.60;1.72;;;;;;;10.82;76.08;99816.98;1710523;83;20979;-67
2021/09/03 05:56:53;;;;;;;2.08;1.40;;;;;;;10.93;75.71;99815.52;1697656;83;21127;-70
2021/09/03 05:59:21;;;;;;;3.50;1.50;;;;;;;11.05;75.24;99807.87;1681856;84;21002;-69
2021/09/03 06:01:47;;;;;;;3.17;1.55;;;;;;;11.13;74.81;99804.20;1690137;83;21508;-69
2021/09/03 06:04:14;;;;;;;1.82;1.40;;;;;;;11.21;74.52;99807.81;1706662;83;21566;-68
2021/09/03 06:06:41;;;;;;;2.12;1.30;;;;;;;11.30;74.14;99805.49;1705769;83;21045;-69
2021/09/03 06:09:07;;;;;;;2.27;1.80;;;;;;;11.35;73.23;99819.02;1683092;83;21117;-68
2021/09/03 06:11:35;;;;;;;1.55;1.45;;;;;;;11.42;72.66;99816.11;1706905;83;20958;-68
2021/09/03 06:14:02;;;;;;;1.77;1.30;;;;;;;11.46;72.39;99801.91;1710879;83;21089;-68
2021/09/03 06:16:30;;;;;;;3.98;1.67;;;;;;;11.53;72.32;99803.05;1709166;83;21475;-69
2021/09/03 06:18:57;;;;;;;3.55;2.22;;;;;;;11.63;72.09;99805.32;1710552;82;21067;-68
2021/09/03 06:21:23;;;;;;;1.87;1.30;;;;;;;11.72;72.04;99805.17;1685820;83;21238;-68
2021/09/03 06:23:50;;;;;;;1.30;1.20;;;;;;;11.81;71.67;99804.17;1681465;85;21205;-70
2021/09/03 06:26:16;;;;;;;1.60;1.47;;;;;;;11.90;71.19;99796.44;1664015;85;21566;-67
2021/09/03 06:28:43;;;;;;;7.78;1.42;;;;;;;11.98;70.65;99800.03;1652593;86;21058;-70
2021/09/03 06:31:09;;;;;;;1.95;1.82;;;;;;;12.04;70.37;99798.45;1681744;85;21071;-68
2021/09/03 06:33:36;;;;;;;1.57;1.47;;;;;;;12.11;69.21;99803.64;1675017;85;21142;-68
2021/09/03 06:36:04;;;;;;;1.82;1.25;;;;;;;12.14;68.92;99791.80;1647798;86;20984;-69
2021/09/03 06:38:33;;;;;;;2.10;1.80;;;;;;;12.22;68.94;99785.95;1659494;85;21008;-69
2021/09/03 06:40:59;;;;;;;2.60;2.40;;;;;;;12.29;68.78;99789.76;1631716;86;21014;-67
2021/09/03 06:43:26;;;;;;;2.58;2.37;;;;;;;12.38;68.60;99794.13;1654071;86;21048;-68
2021/09/03 06:45:52;;;;;;;3.45;2.72;;;;;;;12.45;67.93;99795.55;1659361;85;21070;-68
2021/09/03 06:48:22;;;;;;;2.70;2.50;;;;;;;12.55;67.74;99796.16;1681285;85;21011;-67
2021/09/03 06:50:50;;;;;;;6.10;2.52;;;;;;;12.64;67.59;99783.80;1632571;86;21011;-68
2021/09/03 06:53:17;;;;;;;3.58;1.98;;;;;;;12.75;67.27;99786.84;1652463;86;21153;-68
2021/09/03 06:55:43;;;;;;;4.28;1.77;;;;;;;12.87;66.12;99790.13;1646932;86;21118;-69
2021/09/03 06:58:10;;;;;;;3.80;2.47;;;;;;;12.97;66.21;99786.66;1653948;86;21198;-69
2021/09/03 07:00:36;;;;;;;2.22;1.98;;;;;;;13.06;65.87;99792.66;1630947;86;21071;-69
2021/09/03 07:03:02;;;;;;;2.65;1.50;;;;;;;13.15;64.92;99789.47;1632436;86;21015;-70
2021/09/03 07:05:29;;;;;;;5.12;2.60;;;;;;;13.21;64.78;99787.88;1653331;85;21016;-69
2021/09/03 07:07:56;;;;;;;1.80;1.65;;;;;;;13.25;64.12;99795.72;1650692;86;21093;-69
2021/09/03 07:10:22;;;;;;;1.72;1.62;;;;;;;13.30;63.74;99794.39;1677039;85;21066;-67
2021/09/03 07:12:48;;;;;;;1.50;1.40;;;;;;;13.35;63.74;99805.22;1679834;85;21735;-67
2021/09/03 07:15:15;;;;;;;3.20;1.95;;;;;;;13.36;63.66;99781.19;1652737;86;21112;-68
2021/09/03 07:17:41;;;;;;;1.87;1.75;;;;;;;13.41;63.91;99790.66;1657586;85;21530;-68
2021/09/03 07:20:11;;;;;;;3.60;1.67;;;;;;;13.48;64.03;99784.45;1671090;85;21054;-73
2021/09/03 07:22:37;;;;;;;1.80;1.70;;;;;;;13.56;64.15;99784.48;1681898;85;21663;-75
2021/09/03 07:25:05;;;;;;;8.55;1.70;;;;;;;13.65;63.84;99792.88;1659803;85;21342;-74
2021/09/03 07:27:31;;;;;;;2.33;1.20;;;;;;;13.73;63.26;99782.34;1612635;88;21061;-73
2021/09/03 07:29:58;;;;;;;7.22;1.42;;;;;;;13.84;62.06;99792.09;1652732;86;21072;-74
2021/09/03 07:32:24;;;;;;;3.50;1.20;;;;;;;13.95;62.32;99780.76;1632448;86;21090;-76
2021/09/03 07:34:51;;;;;;;5.80;1.30;;;;;;;14.06;61.88;99789.13;1655353;85;21918;-73
2021/09/03 07:37:18;;;;;;;2.80;1.30;;;;;;;14.17;61.23;99787.24;1651794;86;21047;-74
2021/09/03 07:39:46;;;;;;;2.08;1.32;;;;;;;14.25;60.90;99778.03;1681601;85;21019;-75
2021/09/03 07:42:12;;;;;;;3.90;1.60;;;;;;;14.31;60.20;99786.97;1638940;86;21022;-74
2021/09/03 07:44:40;;;;;;;4.53;1.15;;;;;;;14.36;60.48;99770.22;1626308;88;21065;-74
2021/09/03 07:47:08;;;;;;;1.95;1.25;;;;;;;14.44;59.09;99797.80;1645683;86;21589;-75
2021/09/03 07:49:35;;;;;;;2.22;1.35;;;;;;;14.50;59.43;99781.29;1677631;85;21091;-75
2021/09/03 07:52:01;;;;;;;1.98;1.00;;;;;;;14.56;59.26;99776.69;1654372;86;20975;-73
2021/09/03 07:54:27;;;;;;;2.17;1.42;;;;;;;14.61;59.65;99777.48;1601563;88;21058;-73
2021/09/03 07:56:55;;;;;;;2.15;1.00;;;;;;;14.70;59.51;99788.02;1666333;85;21629;-74
2021/09/03 07:59:21;;;;;;;2.33;1.25;;;;;;;14.77;59.21;99768.23;1657927;85;21082;-72
2021/09/03 08:01:48;;;;;;;2.40;1.45;;;;;;;14.83;58.82;99784.73;1676112;85;21543;-74
2021/09/03 08:04:17;;;;;;;2.77;0.90;;;;;;;14.86;58.19;99760.91;1656615;85;21092;-73
2021/09/03 08:06:46;;;;;;;1.62;0.95;;;;;;;14.87;58.62;99755.77;1676967;85;21067;-74
2021/09/03 08:09:12;;;;;;;5.05;1.37;;;;;;;14.93;58.89;99752.74;1658007;85;21047;-73
2021/09/03 08:11:39;;;;;;;1.55;1.22;;;;;;;15.03;58.82;99782.50;1677775;85;21114;-74
2021/09/03 08:14:06;;;;;;;2.00;1.25;;;;;;;15.14;57.75;99760.25;1678157;85;20967;-73
2021/09/03 08:16:32;;;;;;;6.47;1.67;;;;;;;15.20;57.25;99764.00;1653466;86;21000;-74
2021/09/03 08:19:03;;;;;;;1.17;1.00;;;;;;;15.22;56.72;99756.95;1650467;86;21001;-75
2021/09/03 08:21:28;;;;;;;3.27;0.90;;;;;;;15.26;57.40;99770.20;1652132;85;21592;-74
2021/09/03 08:23:55;;;;;;;1.35;1.10;;;;;;;15.32;56.15;99785.36;1677815;85;21035;-74
2021/09/03 08:26:21;;;;;;;5.80;1.90;;;;;;;15.35;56.57;99744.14;1677781;85;21012;-75
2021/09/03 08:28:47;;;;;;;3.02;1.10;;;;;;;15.37;55.60;99743.33;1654414;86;21078;-74
2021/09/03 08:31:14;;;;;;;3.55;0.80;;;;;;;15.42;55.82;99750.63;1626299;87;21099;-74
2021/09/03 08:33:41;;;;;;;1.30;0.88;;;;;;;15.46;55.05;99756.55;1654513;86;21109;-73
2021/09/03 08:36:07;;;;;;;0.95;0.93;;;;;;;15.49;55.87;99755.98;1605602;88;21702;-74
2021/09/03 08:38:34;;;;;;;2.30;1.00;;;;;;;15.54;55.54;99740.29;1653002;86;21080;-73
2021/09/03 08:41:01;;;;;;;5.00;0.93;;;;;;;15.59;55.53;99746.47;1683729;84;21023;-73
2021/09/03 08:43:28;;;;;;;2.33;1.05;;;;;;;15.63;55.12;99743.45;1699712;84;21070;-74
2021/09/03 08:45:54;;;;;;;2.92;1.30;;;;;;;15.69;55.79;99743.69;1674464;85;21071;-73
2021/09/03 08:48:23;;;;;;;3.55;1.05;;;;;;;15.78;54.73;99758.02;1653286;85;21513;-73
2021/09/03 08:50:52;;;;;;;1.45;1.35;;;;;;;15.83;54.43;99736.26;1653597;85;21022;-75
2021/09/03 08:53:20;;;;;;;1.37;1.07;;;;;;;15.83;54.44;99737.62;1677917;84;20999;-74
2021/09/03 08:55:49;;;;;;;3.15;1.35;;;;;;;15.87;54.14;99745.48;1677955;85;21118;-73
2021/09/03 08:58:15;;;;;;;2.92;1.20;;;;;;;15.88;54.47;99748.43;1699774;84;21143;-73
2021/09/03 09:00:43;;;;;;;3.22;0.90;;;;;;;15.90;54.59;99743.00;1698439;84;22050;-76
2021/09/03 09:03:14;;;;;;;1.32;1.00;;;;;;;15.92;54.93;99721.03;1665703;84;20999;-74
2021/09/03 09:05:59;;;;;;;5.17;1.25;;;;;;;15.99;54.80;99720.14;1671497;85;21010;-74
2021/09/03 09:08:28;;;;;;;2.15;1.20;;;;;;;16.04;55.14;99730.95;1671400;85;20995;-74
2021/09/03 09:11:03;;;;;;;1.20;0.95;;;;;;;16.09;54.86;99727.65;1657682;85;21113;-74
2021/09/03 09:13:36;;;;;;;1.22;0.93;;;;;;;16.07;54.60;99721.68;1681063;84;21121;-73
2021/09/03 09:16:17;;;;;;;1.60;0.90;;;;;;;16.09;54.89;99720.86;1671622;85;21007;-74
2021/09/03 09:18:55;;;;;;;2.65;1.05;;;;;;;16.11;54.51;99704.30;1675624;84;21071;-74
2021/09/03 09:21:34;;;;;;;2.25;0.95;;;;;;;16.14;54.62;99715.39;1699935;84;21548;-73
2021/09/03 09:24:04;;;;;;;5.28;1.72;;;;;;;16.15;53.88;99720.27;1699099;83;21023;-73
2021/09/03 09:26:54;;;;;;;4.47;0.93;;;;;;;16.13;54.01;99709.70;1700333;84;21607;-73
2021/09/03 09:29:31;;;;;;;1.35;1.25;;;;;;;16.11;53.95;99710.52;1677777;84;21568;-72
2021/09/03 09:32:05;;;;;;;1.10;0.80;;;;;;;16.10;54.22;99714.89;1658221;85;21011;-73
2021/09/03 09:34:37;;;;;;;6.10;1.00;;;;;;;16.04;54.35;99705.98;1699305;84;21034;-73
2021/09/03 09:37:13;;;;;;;1.72;1.17;;;;;;;16.05;54.23;99695.41;1695515;84;21566;-72
2021/09/03 09:39:45;;;;;;;;;;;;;;;16.12;54.20;99716.75;1700117;84;21183;-76
2021/09/03 09:42:27;;;;;;;1.37;0.88;;;;;;;16.24;53.00;99683.27;1706117;83;20150;-73
2021/09/03 09:45:08;;;;;;;2.27;1.00;;;;;;;16.39;52.85;99683.66;1709432;83;21070;-72
2021/09/03 09:47:36;;;;;;;4.90;1.07;;;;;;;16.56;51.94;99701.11;1681231;83;21065;-73
2021/09/03 09:50:30;;;;;;;1.02;0.88;;;;;;;16.72;51.56;99692.27;1710526;83;21105;-73
2021/09/03 09:53:09;;;;;;;4.37;1.12;;;;;;;16.83;50.34;99684.27;1711035;83;21540;-75
2021/09/03 09:55:37;;;;;;;3.50;1.00;;;;;;;16.91;50.56;99667.86;1708178;83;20958;-73
2021/09/03 09:58:03;;;;;;;3.67;1.40;;;;;;;16.96;50.65;99682.19;1681286;85;21228;-73
2021/09/03 10:00:35;;;;;;;4.30;1.20;;;;;;;17.02;50.93;99680.22;1683071;83;20994;-73
2021/09/03 10:03:03;;;;;;;1.62;1.45;;;;;;;17.06;50.49;99681.25;1659247;85;21090;-67
2021/09/03 10:05:31;;;;;;;3.02;1.65;;;;;;;17.05;50.36;99682.34;1626191;88;22373;-70
2021/09/03 10:07:58;;;;;;;3.58;0.95;;;;;;;16.97;50.65;99673.48;1627107;86;21007;-70
2021/09/03 10:10:26;;;;;;;4.25;1.20;;;;;;;16.94;50.99;99686.28;1661915;85;21040;-69
2021/09/03 10:12:54;;;;;;;2.05;0.98;;;;;;;16.93;50.77;99671.89;1710627;83;21074;-70
2021/09/03 10:15:20;;;;;;;6.87;1.50;;;;;;;16.90;50.13;99660.80;1710562;83;21117;-69
2021/09/03 10:17:48;;;;;;;3.87;1.50;;;;;;;16.90;50.91;99686.06;1710353;83;21095;-71
2021/09/03 10:20:16;;;;;;;3.92;1.20;;;;;;;16.91;50.11;99687.69;1710638;83;20950;-72
2021/09/03 10:22:44;;;;;;;4.00;1.70;;;;;;;16.93;51.06;99670.53;1689428;83;20912;-73
2021/09/03 10:25:11;;;;;;;2.08;1.85;;;;;;;16.97;50.57;99672.13;1681783;85;21676;-72
2021/09/03 10:27:39;;;;;;;1.37;1.10;;;;;;;17.03;50.21;99655.19;1661864;83;21125;-71
2021/09/03 10:30:14;;;;;;;2.45;0.95;;;;;;;17.07;49.82;99667.92;1689156;83;21226;-74
2021/09/03 10:32:41;;;;;;;5.28;1.55;;;;;;;17.14;49.55;99641.72;1688215;83;21074;-73
2021/09/03 10:35:17;;;;;;;1.55;1.02;;;;;;;17.22;49.21;99651.92;1710575;83;21108;-74
2021/09/03 10:37:44;;;;;;;2.47;1.22;;;;;;;17.31;49.01;99662.41;1710530;83;21043;-72
2021/09/03 10:40:28;;;;;;;1.98;1.42;;;;;;;17.39;49.08;99659.83;1710612;83;21114;-73
2021/09/03 10:42:56;;;;;;;3.02;1.98;;;;;;;17.46;49.11;99663.52;1696014;83;21145;-72
2021/09/03 10:45:36;;;;;;;1.90;1.22;;;;;;;17.54;48.03;99698.77;1663543;84;20979;-70
2021/09/03 10:48:15;;;;;;;2.42;1.40;;;;;;;17.56;47.83;99660.64;1706206;84;21032;-71
2021/09/03 10:50:53;;;;;;;6.62;1.15;;;;;;;17.60;48.16;99636.43;1659844;85;21071;-72
2021/09/03 10:53:28;;;;;;;1.35;1.25;;;;;;;17.70;47.67;99660.72;1665179;85;20971;-80
2021/09/03 10:56:05;;;;;;;1.85;1.25;;;;;;;17.74;47.38;99647.61;1633005;86;21045;-84
2021/09/03 10:59:04;;;;;;;6.67;2.10;;;;;;;17.80;47.12;99664.08;1654449;86;20993;-85
2021/09/03 11:01:37;;;;;;;6.47;1.50;;;;;;;17.84;47.16;99629.72;1632969;86;21080;-82
2021/09/03 11:04:14;;;;;;;3.02;1.10;;;;;;;17.96;46.24;99630.62;1644417;86;21557;-77
2021/09/03 11:06:57;;;;;;;2.60;1.25;;;;;;;18.09;46.64;99636.63;1632125;86;21164;-76
2021/09/03 11:09:29;;;;;;;2.05;1.62;;;;;;;18.24;46.64;99630.91;1657358;85;21764;-75
2021/09/03 11:12:02;;;;;;;1.45;1.15;;;;;;;18.35;45.95;99637.52;1674437;85;21069;-77
2021/09/03 11:14:30;;;;;;;2.87;1.57;;;;;;;18.29;46.35;99628.63;1671075;85;21069;-78
2021/09/03 11:17:09;;;;;;;1.67;1.35;;;;;;;18.21;46.69;99622.53;1673968;84;20994;-79
2021/09/03 11:19:49;;;;;;;1.85;1.45;;;;;;;18.20;46.64;99625.81;1647169;87;20955;-83
2021/09/03 11:22:23;;;;;;;2.95;1.57;;;;;;;18.21;45.00;99611.65;1647710;85;21112;-87
2021/09/03 11:24:52;;;;;;;3.95;2.02;;;;;;;18.18;44.61;99629.38;1685776;84;21563;-78
2021/09/03 11:27:27;;;;;;;3.72;1.30;;;;;;;18.19;45.15;99617.94;1706345;83;21008;-80
2021/09/03 11:29:58;;;;;;;4.10;1.65;;;;;;;18.20;45.55;99605.94;1706384;83;21050;-76
2021/09/03 11:32:27;;;;;;;2.02;1.40;;;;;;;18.20;45.52;99607.30;1705177;84;21102;-75
2021/09/03 11:35:01;;;;;;;1.50;1.40;;;;;;;18.20;45.25;99621.73;1685687;84;21042;-75
2021/09/03 11:37:35;;;;;;;2.47;1.55;;;;;;;18.24;45.49;99591.97;1706165;83;21563;-74
2021/09/03 11:40:17;;;;;;;;;;;;;;;18.29;45.73;99585.06;1688331;84;21043;-73
2021/09/03 11:42:58;;;;;;;6.33;1.42;;;;;;;18.41;45.86;99577.77;1679866;85;20517;-73